Time;durP1;ratioP1;P1;durP2;ratioP2;P2;SDS_P1;SDS_P2;PMS_P1;PMS_P2;Temp;Humidity;BMP_temperature;BMP_pressure;BME280_temperature;BME280_humidity;BME280_pressure;Samples;Min_cycle;Max_cycle;Signal;HPM_P1;HPM_P2
2022/09/23 00:00:41;;;;;;;2.70;2.40;;;13.10;99.90;;;;;;5001619;28;20207;-82
2022/09/23 00:03:11;;;;;;;2.40;2.13;;;13.10;99.90;;;;;;5002108;28;20196;-83
2022/09/23 00:05:38;;;;;;;3.88;2.80;;;13.20;99.90;;;;;;5000100;28;20200;-83
2022/09/23 00:08:10;;;;;;;2.42;2.20;;;13.20;99.90;;;;;;5000282;28;20235;-83
2022/09/23 00:10:39;;;;;;;4.43;2.33;;;13.10;99.90;;;;;;5013731;28;20196;-82
2022/09/23 00:13:07;;;;;;;2.47;2.10;;;13.10;99.90;;;;;;4998669;28;20204;-82
2022/09/23 00:15:38;;;;;;;3.70;2.33;;;13.10;99.90;;;;;;5002351;28;20212;-82
2022/09/23 00:18:07;;;;;;;3.00;2.27;;;13.10;99.90;;;;;;5004074;28;20230;-82
2022/09/23 00:20:36;;;;;;;2.67;2.07;;;13.20;99.90;;;;;;5017823;28;20200;-82
2022/09/23 00:23:03;;;;;;;3.90;2.37;;;13.20;99.90;;;;;;5002875;28;20219;-83
2022/09/23 00:25:31;;;;;;;3.30;1.90;;;13.20;99.90;;;;;;5002614;28;20204;-83
2022/09/23 00:27:58;;;;;;;4.07;2.30;;;13.20;99.90;;;;;;4994780;28;20251;-83
2022/09/23 00:30:26;;;;;;;4.23;2.33;;;13.20;99.90;;;;;;5014076;28;20208;-83
2022/09/23 00:32:55;;;;;;;3.80;2.35;;;13.20;99.90;;;;;;5014757;28;20211;-83
2022/09/23 00:35:23;;;;;;;2.83;2.13;;;13.20;99.90;;;;;;5023188;28;20197;-83
2022/09/23 00:37:52;;;;;;;2.70;2.50;;;13.20;99.90;;;;;;5010046;28;20197;-83
2022/09/23 00:40:20;;;;;;;3.75;2.10;;;13.20;99.90;;;;;;5007354;28;20205;-83
2022/09/23 00:42:48;;;;;;;3.70;2.05;;;13.20;99.90;;;;;;5002640;28;21846;-83
2022/09/23 00:45:16;;;;;;;2.38;2.00;;;13.30;99.90;;;;;;4991669;28;20204;-82
2022/09/23 00:47:48;;;;;;;6.68;2.20;;;13.30;99.90;;;;;;4992360;28;20192;-83
2022/09/23 00:50:22;;;;;;;2.58;1.88;;;13.40;99.90;;;;;;4990080;28;20228;-83
2022/09/23 00:52:56;;;;;;;2.20;1.98;;;13.40;99.90;;;;;;4993475;28;20288;-83
2022/09/23 00:55:28;;;;;;;3.10;2.47;;;13.30;99.90;;;;;;5010268;28;20197;-82
2022/09/23 00:57:58;;;;;;;2.38;2.17;;;13.20;99.90;;;;;;5006238;28;20304;-83
2022/09/23 01:00:26;;;;;;;2.65;2.25;;;13.10;99.90;;;;;;5008828;28;20208;-83
2022/09/23 01:02:54;;;;;;;2.13;1.98;;;13.20;99.90;;;;;;4987329;28;20201;-82
2022/09/23 01:05:22;;;;;;;2.50;1.80;;;13.20;99.90;;;;;;5009454;28;20208;-83
2022/09/23 01:07:50;;;;;;;2.20;1.60;;;13.20;99.90;;;;;;4993831;28;20212;-83
2022/09/23 01:10:20;;;;;;;2.70;2.00;;;13.10;99.90;;;;;;4987868;28;20216;-83
2022/09/23 01:13:04;;;;;;;2.92;2.17;;;13.20;99.90;;;;;;4991458;28;20204;-83
2022/09/23 01:15:39;;;;;;;2.58;2.08;;;13.20;99.90;;;;;;4994307;28;20200;-83
2022/09/23 01:18:14;;;;;;;2.05;1.70;;;13.30;99.90;;;;;;4990163;28;20230;-83
2022/09/23 01:21:13;;;;;;;2.03;1.83;;;13.30;99.90;;;;;;4993154;28;20214;-83
2022/09/23 01:24:20;;;;;;;3.35;1.80;;;13.20;99.90;;;;;;4994940;28;20265;-83
2022/09/23 01:27:12;;;;;;;3.47;1.73;;;13.30;99.90;;;;;;4991994;28;20227;-83
2022/09/23 01:30:10;;;;;;;5.25;1.83;;;13.40;99.90;;;;;;4992673;28;20224;-83
2022/09/23 01:32:56;;;;;;;1.63;1.40;;;13.40;99.90;;;;;;4995490;28;20200;-83
2022/09/23 01:35:30;;;;;;;1.58;1.45;;;13.40;99.90;;;;;;4991964;28;20215;-83
2022/09/23 01:38:09;;;;;;;2.72;1.83;;;13.40;99.90;;;;;;4993050;28;20216;-83
2022/09/23 01:40:47;;;;;;;2.17;1.75;;;13.30;99.90;;;;;;4989477;28;20603;-83
2022/09/23 01:43:20;;;;;;;2.38;1.60;;;13.30;99.90;;;;;;5004562;28;20207;-83
2022/09/23 01:45:52;;;;;;;5.28;2.20;;;13.30;99.90;;;;;;4993509;28;20215;-83
2022/09/23 01:48:23;;;;;;;1.85;1.63;;;13.30;99.90;;;;;;5005358;28;20239;-83
2022/09/23 01:50:56;;;;;;;3.13;1.77;;;13.30;99.90;;;;;;4991615;28;20686;-82
2022/09/23 01:53:31;;;;;;;2.38;1.75;;;13.30;99.90;;;;;;5004089;28;20226;-83
2022/09/23 01:56:04;;;;;;;2.75;1.60;;;13.20;99.90;;;;;;4985520;28;20223;-83
2022/09/23 01:58:40;;;;;;;3.35;1.50;;;13.20;99.90;;;;;;4991810;28;20304;-83
2022/09/23 02:01:11;;;;;;;2.55;1.70;;;13.20;99.90;;;;;;4988460;28;20215;-82
2022/09/23 02:03:45;;;;;;;3.67;1.50;;;13.20;99.90;;;;;;4991179;28;20193;-82
2022/09/23 02:06:19;;;;;;;2.72;1.65;;;13.20;99.90;;;;;;4992650;28;20188;-83
2022/09/23 02:08:52;;;;;;;3.35;1.40;;;13.20;99.90;;;;;;4986312;28;20228;-82
2022/09/23 02:11:20;;;;;;;4.70;1.60;;;13.20;99.90;;;;;;5008884;28;20201;-82
2022/09/23 02:13:53;;;;;;;2.17;1.63;;;13.20;99.90;;;;;;4993699;28;20219;-82
2022/09/23 02:16:26;;;;;;;2.27;1.63;;;13.20;99.90;;;;;;4991795;28;20205;-82
2022/09/23 02:18:59;;;;;;;2.03;1.45;;;13.20;99.90;;;;;;5005345;28;20228;-83
2022/09/23 02:21:35;;;;;;;2.72;1.73;;;13.20;99.90;;;;;;4994583;28;20211;-83
2022/09/23 02:24:09;;;;;;;1.73;1.63;;;13.20;99.90;;;;;;4996262;28;20196;-83
2022/09/23 02:26:41;;;;;;;2.43;1.50;;;13.20;99.90;;;;;;5007176;28;20204;-83
2022/09/23 02:29:19;;;;;;;3.53;1.83;;;13.20;99.90;;;;;;5003787;28;20232;-83
2022/09/23 02:31:57;;;;;;;1.92;1.60;;;13.10;99.90;;;;;;4990734;28;20535;-83
2022/09/23 02:34:38;;;;;;;2.27;1.33;;;13.20;99.90;;;;;;4984596;28;20301;-83
2022/09/23 02:37:14;;;;;;;2.43;1.67;;;13.10;99.90;;;;;;4993062;28;20188;-83
2022/09/23 02:39:52;;;;;;;1.80;1.65;;;13.20;99.90;;;;;;4993031;28;20216;-83
2022/09/23 02:42:23;;;;;;;2.47;1.70;;;13.10;99.90;;;;;;4988296;28;20204;-83
2022/09/23 02:44:51;;;;;;;2.50;1.83;;;13.10;99.90;;;;;;4993183;28;20200;-83
2022/09/23 02:47:24;;;;;;;2.53;1.60;;;13.20;99.90;;;;;;4991745;28;20696;-83
2022/09/23 02:49:55;;;;;;;2.30;1.63;;;13.10;99.90;;;;;;5008279;28;20733;-82
2022/09/23 02:52:23;;;;;;;2.53;1.60;;;13.20;99.90;;;;;;4993487;28;20206;-83
2022/09/23 02:54:52;;;;;;;3.10;1.90;;;13.20;99.90;;;;;;4991748;28;20208;-83
2022/09/23 02:57:20;;;;;;;2.10;1.87;;;13.10;99.90;;;;;;4991912;28;20215;-83
2022/09/23 02:59:49;;;;;;;1.67;1.40;;;13.10;99.90;;;;;;4990177;28;20224;-83
2022/09/23 03:02:50;;;;;;;2.08;1.60;;;13.10;99.90;;;;;;4992696;28;20196;-82
2022/09/23 03:05:24;;;;;;;1.90;1.60;;;13.10;99.90;;;;;;4991025;28;20209;-83
2022/09/23 03:08:07;;;;;;;2.05;1.75;;;13.10;99.90;;;;;;4989103;28;20199;-83
2022/09/23 03:10:44;;;;;;;2.00;1.30;;;13.10;99.90;;;;;;4990434;28;20216;-83
2022/09/23 03:13:21;;;;;;;2.70;1.57;;;13.10;99.90;;;;;;5006358;28;20199;-83
2022/09/23 03:15:56;;;;;;;1.80;1.70;;;13.10;99.90;;;;;;4992109;28;20208;-82
2022/09/23 03:18:31;;;;;;;2.85;1.70;;;13.10;99.90;;;;;;4991954;28;20224;-83
2022/09/23 03:21:07;;;;;;;2.63;1.80;;;13.10;99.90;;;;;;4988804;28;20211;-83
2022/09/23 03:23:37;;;;;;;2.80;1.70;;;13.10;99.90;;;;;;4993449;28;20200;-83
2022/09/23 03:26:10;;;;;;;2.10;1.58;;;13.10;99.90;;;;;;5011159;28;20207;-83
2022/09/23 03:28:42;;;;;;;1.98;1.73;;;13.10;99.90;;;;;;4995633;28;20575;-83
2022/09/23 03:31:11;;;;;;;3.13;2.13;;;13.20;99.90;;;;;;4992139;28;20208;-83
2022/09/23 03:33:42;;;;;;;1.92;1.73;;;13.20;99.90;;;;;;5009885;28;20204;-83
2022/09/23 03:39:03;;;;;;;2.17;1.63;;;13.20;99.90;;;;;;4996187;28;20227;-83
2022/09/23 03:41:34;;;;;;;2.65;1.58;;;13.10;99.90;;;;;;5011482;28;20228;-83
2022/09/23 03:44:03;;;;;;;2.25;1.88;;;13.20;99.90;;;;;;4997272;28;20201;-83
2022/09/23 03:46:36;;;;;;;4.55;1.88;;;13.10;99.90;;;;;;4993214;28;20221;-83
2022/09/23 03:49:11;;;;;;;2.80;1.87;;;13.00;99.90;;;;;;5011745;28;20231;-83
2022/09/23 03:51:39;;;;;;;3.43;2.00;;;13.00;99.90;;;;;;4992266;28;20224;-83
2022/09/23 03:54:07;;;;;;;3.67;1.67;;;13.00;99.90;;;;;;5013222;28;20207;-83
2022/09/23 03:56:34;;;;;;;2.85;2.13;;;13.10;99.90;;;;;;4999719;28;20212;-83
2022/09/23 03:59:02;;;;;;;4.25;1.80;;;13.00;99.90;;;;;;4999132;28;20220;-83
2022/09/23 04:01:29;;;;;;;1.83;1.70;;;13.00;99.90;;;;;;4998530;28;20204;-81
2022/09/23 04:03:57;;;;;;;2.30;1.98;;;13.00;99.90;;;;;;4994053;28;20204;-81
2022/09/23 04:06:24;;;;;;;2.60;1.85;;;13.00;99.90;;;;;;4994826;28;20220;-81
2022/09/23 04:08:53;;;;;;;2.92;2.13;;;12.90;99.90;;;;;;4994364;28;20228;-81
2022/09/23 04:11:21;;;;;;;2.55;1.83;;;12.90;99.90;;;;;;4993119;28;20231;-81
2022/09/23 04:13:48;;;;;;;2.65;1.88;;;13.00;99.90;;;;;;5006176;28;20216;-81
2022/09/23 04:16:15;;;;;;;3.97;1.88;;;13.00;99.90;;;;;;4994491;28;20208;-81
2022/09/23 04:18:43;;;;;;;3.27;1.90;;;12.90;99.90;;;;;;4995346;28;20223;-81
2022/09/23 04:21:10;;;;;;;3.17;2.00;;;12.90;99.90;;;;;;4989392;28;20197;-81
2022/09/23 04:23:38;;;;;;;5.10;1.77;;;12.90;99.90;;;;;;4992900;28;20204;-81
2022/09/23 04:26:07;;;;;;;3.03;2.35;;;12.90;99.90;;;;;;4993087;28;20192;-81
2022/09/23 04:28:35;;;;;;;3.67;2.00;;;12.90;99.90;;;;;;4992592;28;20212;-81
2022/09/23 04:31:04;;;;;;;2.27;2.10;;;12.80;99.90;;;;;;5006440;28;20224;-81
2022/09/23 04:33:33;;;;;;;2.85;2.28;;;12.80;99.90;;;;;;4990183;28;20201;-81
2022/09/23 04:36:01;;;;;;;2.65;2.30;;;12.80;99.90;;;;;;4991156;28;20580;-81
2022/09/23 04:38:28;;;;;;;2.13;1.70;;;12.80;99.90;;;;;;4991234;28;20223;-81
2022/09/23 04:40:58;;;;;;;2.47;2.10;;;12.80;99.90;;;;;;4985258;28;20212;-81
2022/09/23 04:43:26;;;;;;;2.05;1.88;;;12.90;99.90;;;;;;4989490;28;20200;-81
2022/09/23 04:45:59;;;;;;;4.60;2.15;;;12.80;99.90;;;;;;4989494;28;20201;-81
2022/09/23 04:48:26;;;;;;;2.17;1.90;;;12.80;99.90;;;;;;5007711;28;20593;-81
2022/09/23 04:50:54;;;;;;;2.43;2.00;;;12.80;99.90;;;;;;5050522;22;20220;-83
2022/09/23 04:53:21;;;;;;;2.17;1.90;;;12.80;99.90;;;;;;5012365;28;20196;-80
2022/09/23 04:55:50;;;;;;;4.07;2.00;;;12.80;99.90;;;;;;5014477;28;20207;-81
2022/09/23 04:58:18;;;;;;;3.20;1.85;;;12.80;99.90;;;;;;5012556;28;20218;-81
2022/09/23 05:00:46;;;;;;;2.28;2.08;;;12.80;99.90;;;;;;5008848;28;20211;-80
2022/09/23 05:03:14;;;;;;;3.05;2.03;;;12.80;99.90;;;;;;5005329;28;20210;-81
2022/09/23 05:05:42;;;;;;;2.00;1.80;;;12.70;99.90;;;;;;5009787;28;20219;-81
2022/09/23 05:08:10;;;;;;;2.37;2.00;;;12.70;99.90;;;;;;5001852;28;20200;-85
2022/09/23 05:10:37;;;;;;;4.72;2.10;;;12.70;99.90;;;;;;5007747;28;20220;-80
2022/09/23 05:13:35;;;;;;;3.58;1.95;;;12.80;99.90;;;;;;5009335;28;20214;-82
2022/09/23 05:16:06;;;;;;;4.32;2.35;;;12.80;99.90;;;;;;5004250;28;22459;-80
2022/09/23 05:18:35;;;;;;;2.50;2.25;;;12.80;99.90;;;;;;4999263;28;20203;-82
2022/09/23 05:21:03;;;;;;;2.45;1.90;;;12.80;99.90;;;;;;5013712;28;20216;-82
2022/09/23 05:23:33;;;;;;;2.08;1.85;;;12.80;99.90;;;;;;5009021;28;20215;-82
2022/09/23 05:26:04;;;;;;;3.83;2.00;;;12.80;99.90;;;;;;5013608;28;20224;-82
2022/09/23 05:28:32;;;;;;;3.70;2.15;;;12.70;99.90;;;;;;5014056;28;20650;-82
2022/09/23 05:31:06;;;;;;;4.00;2.10;;;12.70;99.90;;;;;;5006737;28;20222;-82
2022/09/23 05:33:35;;;;;;;2.17;1.98;;;12.80;99.90;;;;;;5007834;28;20195;-82
2022/09/23 05:36:05;;;;;;;3.20;2.20;;;12.70;99.90;;;;;;5009446;28;20208;-83
2022/09/23 05:38:33;;;;;;;2.90;1.95;;;12.70;99.90;;;;;;5011449;28;20203;-82
2022/09/23 05:41:03;;;;;;;4.00;2.20;;;12.70;99.90;;;;;;5011974;28;20219;-83
2022/09/23 05:43:31;;;;;;;3.22;2.17;;;12.80;99.90;;;;;;5011110;28;20207;-81
2022/09/23 05:46:09;;;;;;;4.60;2.47;;;12.80;99.90;;;;;;5012695;28;20200;-84
2022/09/23 05:48:46;;;;;;;4.15;2.20;;;12.70;99.90;;;;;;5025005;28;20194;-82
2022/09/23 05:51:16;;;;;;;3.10;2.13;;;12.70;99.90;;;;;;5015455;28;20227;-81
2022/09/23 05:53:44;;;;;;;2.70;2.03;;;12.80;99.90;;;;;;5014420;28;20218;-82
2022/09/23 05:56:11;;;;;;;3.05;2.45;;;12.80;99.90;;;;;;5015122;28;20196;-83
2022/09/23 05:58:39;;;;;;;8.63;2.40;;;12.70;99.90;;;;;;5009007;28;20200;-83
2022/09/23 06:01:11;;;;;;;4.45;2.50;;;12.60;99.90;;;;;;5007440;28;20227;-80
2022/09/23 06:03:39;;;;;;;2.40;2.20;;;12.80;99.90;;;;;;5001958;28;20207;-84
2022/09/23 06:06:11;;;;;;;4.13;2.33;;;12.90;99.90;;;;;;5005789;28;20191;-81
2022/09/23 06:08:45;;;;;;;6.03;2.90;;;12.80;99.90;;;;;;5011220;28;20203;-81
2022/09/23 06:11:13;;;;;;;2.95;2.63;;;12.90;99.90;;;;;;5015123;28;20211;-82
2022/09/23 06:13:41;;;;;;;2.95;2.25;;;12.90;99.90;;;;;;5019507;28;20198;-83
2022/09/23 06:16:12;;;;;;;3.13;2.70;;;13.10;99.90;;;;;;5015197;28;20200;-81
2022/09/23 06:18:41;;;;;;;2.88;2.50;;;13.00;99.90;;;;;;5019368;28;20199;-83
2022/09/23 06:21:12;;;;;;;3.90;2.50;;;13.00;99.90;;;;;;5011285;28;20204;-79
2022/09/23 06:23:40;;;;;;;4.60;2.43;;;13.00;99.90;;;;;;4997832;28;20215;-79
2022/09/23 06:26:09;;;;;;;3.88;2.25;;;13.00;99.90;;;;;;5011351;28;20206;-81
2022/09/23 06:28:42;;;;;;;2.57;2.37;;;13.00;99.90;;;;;;5007289;28;20207;-79
2022/09/23 06:31:14;;;;;;;4.47;2.10;;;13.10;99.90;;;;;;5001324;28;20219;-81
2022/09/23 06:33:42;;;;;;;3.92;2.47;;;13.20;99.90;;;;;;5003537;28;20214;-79
2022/09/23 06:36:11;;;;;;;3.92;2.72;;;13.20;99.90;;;;;;5002179;28;20596;-79
2022/09/23 06:38:39;;;;;;;4.97;2.40;;;13.30;99.90;;;;;;5003444;28;20192;-83
2022/09/23 06:41:07;;;;;;;4.47;2.75;;;13.30;99.90;;;;;;4999749;28;20219;-78
2022/09/23 06:43:35;;;;;;;3.20;2.50;;;13.30;99.90;;;;;;5001247;28;20222;-81
2022/09/23 06:46:04;;;;;;;3.33;2.45;;;13.40;99.90;;;;;;5002695;28;20199;-80
2022/09/23 06:48:35;;;;;;;6.10;2.67;;;13.30;99.90;;;;;;5006018;28;20196;-81
2022/09/23 06:51:06;;;;;;;3.28;2.58;;;13.40;99.90;;;;;;4994023;28;20677;-81
2022/09/23 06:53:33;;;;;;;4.47;2.33;;;13.50;99.90;;;;;;4994803;28;20204;-81
2022/09/23 06:56:03;;;;;;;2.78;2.47;;;13.50;99.90;;;;;;5007377;28;20215;-80
2022/09/23 06:58:31;;;;;;;5.47;3.00;;;13.60;99.90;;;;;;5003443;28;20204;-81
2022/09/23 07:01:01;;;;;;;3.50;2.40;;;13.70;99.90;;;;;;5012587;28;20224;-84
2022/09/23 07:03:30;;;;;;;2.72;2.17;;;13.80;99.90;;;;;;5003998;28;20199;-84
2022/09/23 07:06:00;;;;;;;2.80;2.47;;;13.90;99.90;;;;;;5014186;28;20202;-81
2022/09/23 07:08:29;;;;;;;3.78;2.05;;;13.90;99.90;;;;;;5015157;28;20199;-82
2022/09/23 07:10:59;;;;;;;6.10;3.20;;;14.10;99.90;;;;;;5007637;28;20226;-82
2022/09/23 07:13:27;;;;;;;7.40;4.10;;;14.40;99.90;;;;;;5016674;28;20195;-82
2022/09/23 07:15:57;;;;;;;4.60;3.22;;;15.00;99.90;;;;;;5017156;28;20689;-82
2022/09/23 07:18:25;;;;;;;3.25;2.25;;;15.20;99.20;;;;;;5014647;28;20445;-80
2022/09/23 07:20:57;;;;;;;4.93;2.50;;;15.00;99.20;;;;;;5016349;28;20242;-79
2022/09/23 07:23:26;;;;;;;5.07;2.03;;;15.10;98.30;;;;;;5016340;28;20199;-80
2022/09/23 07:25:58;;;;;;;3.65;1.98;;;15.20;97.90;;;;;;5016426;28;20210;-81
2022/09/23 07:28:26;;;;;;;2.42;2.10;;;15.20;97.50;;;;;;5016062;28;20203;-80
2022/09/23 07:30:54;;;;;;;8.20;3.42;;;15.30;98.70;;;;;;5010591;28;20222;-81
2022/09/23 07:33:21;;;;;;;6.15;2.55;;;15.30;98.10;;;;;;5027513;28;20677;-80
2022/09/23 07:35:49;;;;;;;14.68;5.00;;;15.20;97.30;;;;;;5012131;28;20207;-81
2022/09/23 07:38:16;;;;;;;3.88;2.22;;;15.20;98.10;;;;;;5010866;28;20634;-80
2022/09/23 07:40:45;;;;;;;2.22;2.03;;;15.10;97.50;;;;;;5015004;28;20234;-80
2022/09/23 07:43:13;;;;;;;3.10;1.98;;;15.20;97.40;;;;;;5019925;28;20188;-81
2022/09/23 07:45:42;;;;;;;2.20;1.75;;;15.20;99.10;;;;;;5014362;28;20205;-82
2022/09/23 07:48:11;;;;;;;3.05;1.73;;;15.20;99.00;;;;;;5026084;28;20202;-85
2022/09/23 07:50:39;;;;;;;2.85;1.88;;;15.20;96.80;;;;;;5014709;28;20230;-82
2022/09/23 07:53:07;;;;;;;3.22;2.03;;;15.20;97.20;;;;;;5014636;28;20227;-81
2022/09/23 07:55:35;;;;;;;4.53;2.13;;;15.30;97.90;;;;;;5029991;28;20203;-81
2022/09/23 07:58:04;;;;;;;2.78;2.22;;;15.30;98.10;;;;;;5020271;28;20191;-80
2022/09/23 08:00:32;;;;;;;3.95;2.08;;;15.20;97.50;;;;;;5014998;28;20212;-81
2022/09/23 08:02:59;;;;;;;2.92;2.00;;;15.30;97.30;;;;;;5020956;28;20195;-80
2022/09/23 08:05:26;;;;;;;2.05;1.85;;;15.40;95.90;;;;;;5012083;28;20199;-80
2022/09/23 08:07:54;;;;;;;3.47;1.85;;;15.40;95.60;;;;;;5015895;28;20283;-81
2022/09/23 08:10:21;;;;;;;2.60;1.73;;;15.40;96.60;;;;;;5011043;28;20227;-82
2022/09/23 08:12:49;;;;;;;2.53;1.80;;;15.40;96.10;;;;;;5014325;28;20237;-81
2022/09/23 08:15:18;;;;;;;2.60;2.03;;;15.40;95.30;;;;;;5016235;28;20211;-81
2022/09/23 08:17:45;;;;;;;2.97;1.73;;;15.40;95.30;;;;;;5024362;28;20206;-81
2022/09/23 08:20:43;;;;;;;2.88;1.63;;;15.40;95.30;;;;;;5015370;28;20224;-81
2022/09/23 08:23:01;;;;;;;3.60;1.70;;;15.40;95.70;;;;;;5014999;28;20195;-82
2022/09/23 08:25:30;;;;;;;1.90;1.70;;;15.50;94.90;;;;;;5007834;28;20208;-81
2022/09/23 08:27:58;;;;;;;2.28;1.58;;;15.60;94.70;;;;;;5014101;28;20662;-81
2022/09/23 08:30:27;;;;;;;5.35;2.00;;;15.60;95.00;;;;;;5017801;28;20212;-81
2022/09/23 08:32:54;;;;;;;2.65;2.45;;;15.60;95.40;;;;;;5017579;28;20228;-82
2022/09/23 08:35:23;;;;;;;3.30;1.80;;;15.70;95.30;;;;;;5007037;28;20200;-82
2022/09/23 08:37:51;;;;;;;1.92;1.67;;;15.70;94.70;;;;;;5015988;28;20219;-83
2022/09/23 08:40:19;;;;;;;2.70;1.63;;;15.60;94.70;;;;;;5014158;28;20223;-81
2022/09/23 08:42:47;;;;;;;1.75;1.65;;;15.70;95.40;;;;;;5015118;28;20211;-81
2022/09/23 08:45:20;;;;;;;3.25;1.85;;;15.70;94.60;;;;;;5010416;28;20200;-80
2022/09/23 08:47:55;;;;;;;4.65;2.08;;;15.70;94.70;;;;;;5011805;28;20203;-81
2022/09/23 08:50:24;;;;;;;4.10;2.40;;;15.70;95.80;;;;;;5016723;28;20237;-81
2022/09/23 08:52:55;;;;;;;2.53;1.70;;;15.80;94.10;;;;;;5009852;28;20223;-81
2022/09/23 08:55:32;;;;;;;2.00;1.60;;;15.80;94.20;;;;;;4999246;28;20196;-81
2022/09/23 08:58:18;;;;;;;3.50;2.42;;;15.90;94.40;;;;;;5003445;28;20196;-83
2022/09/23 09:00:55;;;;;;;2.67;2.05;;;15.80;94.80;;;;;;5006190;28;20223;-81
2022/09/23 09:03:30;;;;;;;2.30;1.90;;;15.90;94.30;;;;;;4999024;28;20569;-81
2022/09/23 09:05:58;;;;;;;4.03;2.08;;;16.00;94.90;;;;;;5009401;28;20200;-80
2022/09/23 09:08:30;;;;;;;2.28;1.73;;;16.00;95.00;;;;;;5007099;28;20219;-81
2022/09/23 09:10:59;;;;;;;2.53;1.95;;;16.00;94.50;;;;;;5002647;28;20231;-81
2022/09/23 09:13:31;;;;;;;1.98;1.70;;;16.00;93.60;;;;;;5008950;28;20216;-81
2022/09/23 09:16:27;;;;;;;3.22;2.08;;;16.00;93.70;;;;;;5007918;28;20195;-82
2022/09/23 09:19:00;;;;;;;3.08;2.35;;;16.10;94.20;;;;;;5020268;28;20206;-81
2022/09/23 09:21:36;;;;;;;3.15;1.70;;;16.10;94.20;;;;;;5010832;28;20223;-82
2022/09/23 09:24:12;;;;;;;2.90;2.20;;;16.10;93.40;;;;;;5010452;28;20203;-80
2022/09/23 09:26:40;;;;;;;2.53;2.00;;;16.20;93.70;;;;;;5011497;28;20226;-80
2022/09/23 09:29:12;;;;;;;3.05;1.80;;;16.20;93.00;;;;;;5007280;28;20212;-79
2022/09/23 09:31:42;;;;;;;5.15;1.95;;;16.10;92.80;;;;;;5011450;28;20204;-81
2022/09/23 09:34:22;;;;;;;3.08;2.13;;;16.10;92.60;;;;;;5014281;28;20223;-81
2022/09/23 09:37:00;;;;;;;2.00;1.80;;;16.20;92.40;;;;;;5003553;28;20299;-80
2022/09/23 09:39:28;;;;;;;3.72;1.67;;;16.20;93.10;;;;;;5012759;28;20204;-80
2022/09/23 09:41:59;;;;;;;3.05;2.22;;;16.20;92.60;;;;;;5004767;28;20546;-80
2022/09/23 09:44:33;;;;;;;2.20;1.90;;;16.20;92.90;;;;;;5013418;28;20196;-80
2022/09/23 09:47:15;;;;;;;3.15;1.98;;;16.30;93.30;;;;;;5006230;28;20210;-79
2022/09/23 09:49:50;;;;;;;3.85;2.10;;;16.30;93.10;;;;;;5006007;28;20250;-79
2022/09/23 09:52:22;;;;;;;2.47;2.08;;;16.40;92.20;;;;;;5000401;28;20195;-80
2022/09/23 09:54:51;;;;;;;3.20;2.10;;;16.40;93.20;;;;;;5003369;28;20214;-80
2022/09/23 09:57:33;;;;;;;6.78;2.47;;;16.50;92.50;;;;;;5009620;28;20199;-82
2022/09/23 10:00:32;;;;;;;3.00;1.90;;;16.60;91.80;;;;;;5009831;28;20258;-80
2022/09/23 10:03:03;;;;;;;3.58;2.05;;;16.60;91.40;;;;;;5006617;28;20199;-79
2022/09/23 10:05:34;;;;;;;3.30;1.80;;;16.70;91.30;;;;;;5001851;28;20207;-81
2022/09/23 10:08:23;;;;;;;2.95;2.03;;;16.70;91.60;;;;;;5006684;28;20200;-80
2022/09/23 10:10:59;;;;;;;4.30;2.63;;;16.60;91.80;;;;;;5002681;28;20310;-79
2022/09/23 10:13:29;;;;;;;1.73;1.60;;;16.70;92.30;;;;;;5006643;28;20216;-79
2022/09/23 10:15:58;;;;;;;3.33;2.22;;;16.90;91.90;;;;;;5005007;28;20665;-80
2022/09/23 10:18:30;;;;;;;3.47;2.10;;;16.90;92.60;;;;;;5004678;28;20196;-80
2022/09/23 10:21:08;;;;;;;3.00;1.95;;;16.90;91.90;;;;;;5002693;28;20227;-80
2022/09/23 10:23:40;;;;;;;2.42;1.75;;;16.80;91.20;;;;;;4993316;28;20211;-79
2022/09/23 10:26:10;;;;;;;3.35;1.88;;;16.80;91.30;;;;;;5002176;28;20207;-82
2022/09/23 10:28:50;;;;;;;3.63;2.30;;;16.80;92.40;;;;;;5003481;28;20203;-80
2022/09/23 10:31:24;;;;;;;4.38;2.20;;;16.80;91.40;;;;;;5002045;28;20215;-79
2022/09/23 10:33:56;;;;;;;2.97;2.38;;;16.90;91.30;;;;;;5001898;28;20216;-79
2022/09/23 10:36:25;;;;;;;3.08;2.47;;;17.00;90.80;;;;;;5005405;28;20199;-79
2022/09/23 10:46:36;;;;;;;2.08;1.88;;;17.10;90.40;;;;;;5002961;28;20196;-82
2022/09/23 10:47:56;;;;;;;3.97;1.70;;;17.30;90.50;;;;;;4999791;28;20211;-80
2022/09/23 10:50:39;;;;;;;5.25;2.88;;;17.50;90.60;;;;;;5004651;28;20231;-77
2022/09/23 10:53:18;;;;;;;4.00;2.35;;;17.60;91.00;;;;;;4998112;28;20219;-84
2022/09/23 10:56:04;;;;;;;4.22;2.40;;;17.40;90.80;;;;;;5003742;28;20199;-80
2022/09/23 10:58:52;;;;;;;3.00;1.73;;;17.60;91.80;;;;;;5000574;28;20199;-78
2022/09/23 11:01:30;;;;;;;2.38;1.90;;;17.60;90.30;;;;;;4997881;28;20231;-81
2022/09/23 11:04:27;;;;;;;3.50;2.10;;;17.60;89.60;;;;;;5000676;28;20188;-83
2022/09/23 11:07:19;;;;;;;2.42;1.95;;;17.60;88.10;;;;;;5003022;28;20200;-78
2022/09/23 11:10:16;;;;;;;1.95;1.58;;;17.70;88.90;;;;;;5004121;28;20216;-78
2022/09/23 11:12:53;;;;;;;2.42;1.70;;;17.70;90.00;;;;;;5003598;28;20574;-77
2022/09/23 11:15:32;;;;;;;3.95;1.88;;;17.60;89.50;;;;;;5001009;28;20235;-77
2022/09/23 11:18:22;;;;;;;2.20;1.65;;;17.60;88.20;;;;;;5000870;28;20227;-79
2022/09/23 11:21:00;;;;;;;2.85;1.92;;;17.50;86.70;;;;;;4997584;28;20223;-81
2022/09/23 11:23:54;;;;;;;1.95;1.60;;;17.80;89.40;;;;;;5000845;28;20218;-80
2022/09/23 11:26:34;;;;;;;3.55;1.90;;;17.80;88.30;;;;;;5003237;28;20235;-79
2022/09/23 11:29:29;;;;;;;3.20;1.63;;;17.60;87.00;;;;;;5002854;28;20223;-81
2022/09/23 11:32:09;;;;;;;2.67;1.73;;;17.70;88.40;;;;;;5002638;28;20212;-81
2022/09/23 11:34:52;;;;;;;1.73;1.50;;;17.80;87.60;;;;;;5006704;28;20215;-80
2022/09/23 11:37:22;;;;;;;2.75;1.83;;;18.00;88.30;;;;;;5002086;28;20700;-80
2022/09/23 11:39:57;;;;;;;2.30;1.80;;;18.10;84.90;;;;;;4998413;28;20228;-78
2022/09/23 11:42:29;;;;;;;2.72;2.00;;;18.30;84.90;;;;;;5006416;28;20192;-79
2022/09/23 11:45:01;;;;;;;2.38;2.17;;;18.30;84.00;;;;;;5001403;28;20188;-78
2022/09/23 11:47:35;;;;;;;3.78;1.80;;;18.50;84.70;;;;;;5003230;28;20561;-78
2022/09/23 11:50:08;;;;;;;4.78;2.28;;;18.70;83.50;;;;;;5007678;28;20234;-78
2022/09/23 11:52:42;;;;;;;2.72;1.92;;;18.80;81.00;;;;;;4995779;28;20222;-78
2022/09/23 11:55:18;;;;;;;4.00;1.85;;;19.20;80.40;;;;;;5008298;28;20216;-79
2022/09/23 11:57:52;;;;;;;3.35;1.50;;;19.20;78.90;;;;;;4997988;28;20195;-78
2022/09/23 12:00:24;;;;;;;2.95;1.73;;;19.20;78.20;;;;;;5004436;28;20226;-78
2022/09/23 12:03:05;;;;;;;2.65;2.08;;;19.20;77.20;;;;;;5001586;28;20208;-78
2022/09/23 12:05:38;;;;;;;4.10;1.73;;;19.50;78.70;;;;;;5006184;28;20203;-79
2022/09/23 12:08:12;;;;;;;4.80;1.83;;;19.90;77.30;;;;;;5004364;28;20200;-78
2022/09/23 12:10:48;;;;;;;1.92;1.50;;;20.00;73.80;;;;;;4994981;28;20215;-78
2022/09/23 12:13:24;;;;;;;2.33;1.80;;;19.60;72.10;;;;;;5001705;28;20202;-80
2022/09/23 12:16:08;;;;;;;3.42;1.85;;;19.40;68.40;;;;;;5013104;28;20557;-81
2022/09/23 12:18:46;;;;;;;2.28;1.60;;;19.30;67.50;;;;;;5013322;28;20195;-81
2022/09/23 12:21:44;;;;;;;5.25;2.13;;;19.30;68.90;;;;;;5056912;22;20257;-82
2022/09/23 12:51:28;;;;;;;2.13;1.60;;;19.50;70.60;;;;;;4978721;28;20232;-82
2022/09/23 12:57:58;;;;;;;2.00;1.70;;;19.30;69.40;;;;;;5003873;28;20223;-81
2022/09/23 13:00:27;;;;;;;2.95;2.00;;;19.10;66.40;;;;;;5026390;28;20206;-81
2022/09/23 13:08:37;;;;;;;2.33;1.98;;;19.10;67.60;;;;;;5025361;28;20185;-80
2022/09/23 13:11:08;;;;;;;3.20;2.30;;;19.00;65.60;;;;;;5033245;28;20707;-80
2022/09/23 13:13:40;;;;;;;4.85;2.20;;;18.80;67.70;;;;;;5037365;28;20214;-82
2022/09/23 13:16:13;;;;;;;4.97;2.05;;;18.70;68.30;;;;;;5022004;28;20231;-80
2022/09/23 13:18:59;;;;;;;4.88;2.25;;;18.70;69.50;;;;;;5022872;28;20203;-83
2022/09/23 13:22:00;;;;;;;3.88;2.00;;;18.70;69.70;;;;;;5030368;28;20227;-81
2022/09/23 13:24:42;;;;;;;2.72;2.22;;;18.60;70.40;;;;;;5030953;28;20196;-81
2022/09/23 13:27:25;;;;;;;3.20;1.67;;;18.60;68.90;;;;;;5028189;28;20202;-81
2022/09/23 13:29:59;;;;;;;2.72;1.98;;;18.60;68.90;;;;;;5027837;28;20204;-80
2022/09/23 13:32:31;;;;;;;2.20;2.00;;;18.60;69.20;;;;;;5031607;28;20228;-81
2022/09/23 13:35:04;;;;;;;2.53;2.00;;;18.60;69.40;;;;;;5015553;28;20218;-80
2022/09/23 13:37:44;;;;;;;3.17;1.98;;;18.40;68.30;;;;;;5033146;28;20200;-82
2022/09/23 13:40:23;;;;;;;4.38;2.50;;;18.30;69.00;;;;;;5017948;28;20195;-82
2022/09/23 13:43:01;;;;;;;4.40;2.50;;;18.30;69.80;;;;;;5020144;28;20219;-83
2022/09/23 13:45:38;;;;;;;4.05;2.15;;;18.30;69.70;;;;;;5035555;28;20211;-80
2022/09/23 13:48:21;;;;;;;2.63;2.28;;;18.30;71.00;;;;;;5016104;28;20200;-81
2022/09/23 13:50:52;;;;;;;3.63;2.40;;;18.30;71.50;;;;;;5028426;28;20222;-84
2022/09/23 13:53:24;;;;;;;5.72;2.53;;;18.30;71.10;;;;;;5020520;28;20204;-82
2022/09/23 13:56:03;;;;;;;5.45;2.63;;;18.30;71.50;;;;;;5019118;28;20238;-84
2022/09/23 13:58:33;;;;;;;4.30;2.10;;;18.30;72.70;;;;;;5035457;28;20205;-83
2022/09/23 14:01:02;;;;;;;3.28;2.08;;;18.40;74.60;;;;;;5009816;28;20200;-81
2022/09/23 14:03:31;;;;;;;4.28;2.33;;;18.40;75.10;;;;;;5035119;28;20191;-81